Tiruchirapalli, India

11:08 AM IST on July 26, 2016 (GMT +0530)
Tiruchirappalli | | Change Station

Elev 289 ft 10.77 °N, 78.71 °E | Updated 8 minutes ago

Scattered Clouds
Scattered Clouds
88 °F
Feels Like 96 °F
N
7
Wind Variable Wind from West

Today
High -- | Low -- °F
--% Chance of Precip.
Yesterday
High -- | Low -- °F
Precip. -- in
Pressure 29.74 in
Visibility 5.0 miles
Clouds Scattered Clouds 1600 ft
Heat Index 96 °F
Dew Point 73 °F
Humidity 62%
Rainfall 0.00 in
Snow Depth Not available.
6:02 AM 6:40 PM
Waning Gibbous, 58% visible
METAR VOTR 260530Z 27006KT 8000 SCT016 31/23 Q1007 NOSIG
Pressure 29.74 in
Visibility 5.0 miles
Clouds Scattered Clouds 1600 ft
Heat Index 96 °F
Dew Point 73 °F
Humidity 62%
Rainfall 0.00 in
Snow Depth Not available.
6:02 AM 6:40 PM
Waning Gibbous, 58% visible
METAR VOTR 260530Z 27006KT 8000 SCT016 31/23 Q1007 NOSIG

10-Day Weather Forecast

No radar image for this location.
×

Almanac

Astronomy

Jul. 26, 2016 Rise Set
Actual Time
Civil Twilight
Nautical Twilight
Astronomical Twilight
Moon
Length of Visible Light
Length of Day
Tomorrow will be .
, % of the Moon is Illuminated

Today's Extremes

Country Highs Country Lows

Community

WunderPhotos

Upload Photos

1,927,538 photos uploaded!

WunderBlog® & News

Nearby

Air Quality

  Air Quality AQ Index Pollutant
Not available.

Snow Depth

Station Depth Elevation

Earthquake Activity

City Distance Mag. Time & Date
Minimum magnitude displayed is 2.5.

Coastal Water Temperatures

Place Temperature

Stations

Nearby Weather Stations

Station Location Temp. Windchill Dew Point Humidity Wind Precip. Elev Updated Type